Hlavní strana
METAR-TAF:

METAR-TAF

Letiště :

Warren Field Airport

Washington, Severní Karolína, Spojené státy americké

zeměpisná šířka: 35-34-14N, zeměpisná délka: 077-02-59W, výška: 12 m

Aktuální stav počasí

Zpráva byla vytvořena před 19 minutami, v 09:15 UTC
Bezvětří
Teplota 11°C
Vlhkost vzduchu 94%
Tlak 1018 hPa
Viditelnost: 16.1 km
Jasno

METAR: KOCW 060915Z AUTO 00000KT 10SM CLR 11/10 A3007 RMK AO2 T01090097

Čas: 05:34 (09:34 UTC)


TAF: chybějící

Stav a předpovědi počasí z více než 4 000 letišť (zprávy METAR a TAF).

Červené a žluté tečky na mapě představují dostupné meteorologické stanice.

Když kurzor umístíte na tečku, zobrazí se název stanice.

Pak kliknutím zobrazíte stav a předpověď počasí.

Chcete-li změnit mapu, kliknutím na zelené tlačítko se znaménkem +mapu přiblížíte, kliknutím na zelené tlačítko se znaménkem – mapu oddálíte a kliknutím na zelené šipky přejdete na sousední mapy.


METAR-TAF: